sensor_id;sensor_type;location;lat;lon;timestamp;P1;durP1;ratioP1;P2;durP2;ratioP2
46348;SDS011;32057;47.830;19.046;2023-04-16T00:02:11;1.50;;;1.23;;
46348;SDS011;32057;47.830;19.046;2023-04-16T00:04:37;1.33;;;1.23;;
46348;SDS011;32057;47.830;19.046;2023-04-16T00:07:03;2.20;;;1.13;;
46348;SDS011;32057;47.830;19.046;2023-04-16T00:09:28;1.73;;;1.63;;
46348;SDS011;32057;47.830;19.046;2023-04-16T00:11:54;1.67;;;1.40;;
46348;SDS011;32057;47.830;19.046;2023-04-16T00:14:20;7.60;;;1.80;;
46348;SDS011;32057;47.830;19.046;2023-04-16T00:16:45;2.97;;;2.03;;
46348;SDS011;32057;47.830;19.046;2023-04-16T00:19:11;3.03;;;1.73;;
46348;SDS011;32057;47.830;19.046;2023-04-16T00:21:36;3.50;;;2.05;;
46348;SDS011;32057;47.830;19.046;2023-04-16T00:24:02;2.03;;;1.48;;
46348;SDS011;32057;47.830;19.046;2023-04-16T00:26:27;1.35;;;1.25;;
46348;SDS011;32057;47.830;19.046;2023-04-16T00:28:53;1.83;;;1.67;;
46348;SDS011;32057;47.830;19.046;2023-04-16T00:31:25;1.35;;;1.25;;
46348;SDS011;32057;47.830;19.046;2023-04-16T00:33:54;2.15;;;1.23;;
46348;SDS011;32057;47.830;19.046;2023-04-16T00:36:19;1.30;;;1.08;;
46348;SDS011;32057;47.830;19.046;2023-04-16T00:38:45;1.17;;;1.17;;
46348;SDS011;32057;47.830;19.046;2023-04-16T00:41:11;1.98;;;1.42;;
46348;SDS011;32057;47.830;19.046;2023-04-16T00:43:36;1.42;;;1.35;;
46348;SDS011;32057;47.830;19.046;2023-04-16T00:46:02;2.15;;;2.05;;
46348;SDS011;32057;47.830;19.046;2023-04-16T00:48:29;2.10;;;1.48;;
46348;SDS011;32057;47.830;19.046;2023-04-16T00:50:57;1.30;;;1.25;;
46348;SDS011;32057;47.830;19.046;2023-04-16T00:53:24;1.23;;;1.20;;
46348;SDS011;32057;47.830;19.046;2023-04-16T00:55:50;1.52;;;1.42;;
46348;SDS011;32057;47.830;19.046;2023-04-16T00:58:15;1.55;;;1.45;;
46348;SDS011;32057;47.830;19.046;2023-04-16T01:00:41;1.50;;;1.40;;
46348;SDS011;32057;47.830;19.046;2023-04-16T01:03:07;6.78;;;1.70;;
46348;SDS011;32057;47.830;19.046;2023-04-16T01:05:34;1.63;;;1.52;;
46348;SDS011;32057;47.830;19.046;2023-04-16T01:08:00;1.60;;;1.50;;
46348;SDS011;32057;47.830;19.046;2023-04-16T01:10:26;2.45;;;1.73;;
46348;SDS011;32057;47.830;19.046;2023-04-16T01:12:51;1.48;;;1.30;;
46348;SDS011;32057;47.830;19.046;2023-04-16T01:15:16;2.03;;;1.83;;
46348;SDS011;32057;47.830;19.046;2023-04-16T01:17:43;1.63;;;1.50;;
46348;SDS011;32057;47.830;19.046;2023-04-16T01:20:10;3.35;;;2.15;;
46348;SDS011;32057;47.830;19.046;2023-04-16T01:22:36;1.67;;;1.58;;
46348;SDS011;32057;47.830;19.046;2023-04-16T01:25:01;1.30;;;1.08;;
46348;SDS011;32057;47.830;19.046;2023-04-16T01:27:26;1.65;;;1.55;;
46348;SDS011;32057;47.830;19.046;2023-04-16T01:29:52;1.73;;;1.63;;
46348;SDS011;32057;47.830;19.046;2023-04-16T01:32:17;3.85;;;2.05;;
46348;SDS011;32057;47.830;19.046;2023-04-16T01:34:43;2.45;;;2.25;;
46348;SDS011;32057;47.830;19.046;2023-04-16T01:37:08;2.30;;;2.10;;
46348;SDS011;32057;47.830;19.046;2023-04-16T01:39:33;2.20;;;1.98;;
46348;SDS011;32057;47.830;19.046;2023-04-16T01:41:59;3.97;;;2.03;;
46348;SDS011;32057;47.830;19.046;2023-04-16T01:44:25;3.53;;;2.30;;
46348;SDS011;32057;47.830;19.046;2023-04-16T01:46:50;1.80;;;1.70;;
46348;SDS011;32057;47.830;19.046;2023-04-16T01:49:16;2.45;;;1.52;;
46348;SDS011;32057;47.830;19.046;2023-04-16T01:51:41;1.75;;;1.65;;
46348;SDS011;32057;47.830;19.046;2023-04-16T01:54:07;2.28;;;1.60;;
46348;SDS011;32057;47.830;19.046;2023-04-16T01:56:33;2.38;;;2.10;;
46348;SDS011;32057;47.830;19.046;2023-04-16T01:58:58;2.58;;;2.33;;
46348;SDS011;32057;47.830;19.046;2023-04-16T02:01:24;2.58;;;2.38;;
46348;SDS011;32057;47.830;19.046;2023-04-16T02:03:50;1.83;;;1.73;;
46348;SDS011;32057;47.830;19.046;2023-04-16T02:06:15;2.03;;;1.80;;
46348;SDS011;32057;47.830;19.046;2023-04-16T02:08:41;1.27;;;1.17;;
46348;SDS011;32057;47.830;19.046;2023-04-16T02:11:07;1.88;;;1.77;;
46348;SDS011;32057;47.830;19.046;2023-04-16T02:13:32;2.03;;;1.63;;
46348;SDS011;32057;47.830;19.046;2023-04-16T02:15:58;1.55;;;1.45;;
46348;SDS011;32057;47.830;19.046;2023-04-16T02:18:23;1.70;;;1.50;;
46348;SDS011;32057;47.830;19.046;2023-04-16T02:20:48;1.63;;;1.50;;
46348;SDS011;32057;47.830;19.046;2023-04-16T02:23:14;1.55;;;1.42;;
46348;SDS011;32057;47.830;19.046;2023-04-16T02:25:40;2.20;;;1.73;;
46348;SDS011;32057;47.830;19.046;2023-04-16T02:28:10;1.45;;;1.35;;
46348;SDS011;32057;47.830;19.046;2023-04-16T02:30:38;2.08;;;1.70;;
46348;SDS011;32057;47.830;19.046;2023-04-16T02:33:04;2.28;;;1.95;;
46348;SDS011;32057;47.830;19.046;2023-04-16T02:35:35;1.25;;;1.15;;
46348;SDS011;32057;47.830;19.046;2023-04-16T02:38:01;1.23;;;1.20;;
46348;SDS011;32057;47.830;19.046;2023-04-16T02:40:28;1.67;;;1.30;;
46348;SDS011;32057;47.830;19.046;2023-04-16T02:42:54;1.48;;;1.42;;
46348;SDS011;32057;47.830;19.046;2023-04-16T02:45:20;2.45;;;2.08;;
46348;SDS011;32057;47.830;19.046;2023-04-16T02:47:49;2.38;;;1.85;;
46348;SDS011;32057;47.830;19.046;2023-04-16T02:50:15;2.80;;;1.52;;
46348;SDS011;32057;47.830;19.046;2023-04-16T02:52:41;1.58;;;1.48;;
46348;SDS011;32057;47.830;19.046;2023-04-16T02:55:07;2.25;;;1.77;;
46348;SDS011;32057;47.830;19.046;2023-04-16T02:57:33;1.92;;;1.58;;
46348;SDS011;32057;47.830;19.046;2023-04-16T02:59:58;2.15;;;1.98;;
46348;SDS011;32057;47.830;19.046;2023-04-16T03:02:24;2.33;;;2.05;;
46348;SDS011;32057;47.830;19.046;2023-04-16T03:04:50;2.08;;;1.85;;
46348;SDS011;32057;47.830;19.046;2023-04-16T03:07:15;3.10;;;2.17;;
46348;SDS011;32057;47.830;19.046;2023-04-16T03:09:42;4.00;;;2.70;;
46348;SDS011;32057;47.830;19.046;2023-04-16T03:12:07;2.72;;;2.53;;
46348;SDS011;32057;47.830;19.046;2023-04-16T03:14:33;3.45;;;2.25;;
46348;SDS011;32057;47.830;19.046;2023-04-16T03:16:58;1.67;;;1.45;;
46348;SDS011;32057;47.830;19.046;2023-04-16T03:19:24;1.90;;;1.80;;
46348;SDS011;32057;47.830;19.046;2023-04-16T03:21:49;2.47;;;2.28;;
46348;SDS011;32057;47.830;19.046;2023-04-16T03:24:15;3.00;;;2.72;;
46348;SDS011;32057;47.830;19.046;2023-04-16T03:26:40;2.03;;;1.80;;
46348;SDS011;32057;47.830;19.046;2023-04-16T03:29:06;1.17;;;1.15;;
46348;SDS011;32057;47.830;19.046;2023-04-16T03:31:31;3.67;;;2.13;;
46348;SDS011;32057;47.830;19.046;2023-04-16T03:33:57;4.55;;;1.27;;
46348;SDS011;32057;47.830;19.046;2023-04-16T03:36:22;2.25;;;1.95;;
46348;SDS011;32057;47.830;19.046;2023-04-16T03:38:48;1.98;;;1.85;;
46348;SDS011;32057;47.830;19.046;2023-04-16T03:41:13;5.60;;;2.03;;
46348;SDS011;32057;47.830;19.046;2023-04-16T03:43:39;1.60;;;1.42;;
46348;SDS011;32057;47.830;19.046;2023-04-16T03:46:04;2.80;;;2.50;;
46348;SDS011;32057;47.830;19.046;2023-04-16T03:48:30;1.83;;;1.73;;
46348;SDS011;32057;47.830;19.046;2023-04-16T03:50:55;2.53;;;1.88;;
46348;SDS011;32057;47.830;19.046;2023-04-16T03:53:21;2.17;;;2.08;;
46348;SDS011;32057;47.830;19.046;2023-04-16T03:55:48;2.47;;;1.75;;
46348;SDS011;32057;47.830;19.046;2023-04-16T03:58:17;2.03;;;1.92;;
46348;SDS011;32057;47.830;19.046;2023-04-16T04:00:43;1.55;;;1.45;;
46348;SDS011;32057;47.830;19.046;2023-04-16T04:03:09;2.38;;;2.17;;
46348;SDS011;32057;47.830;19.046;2023-04-16T04:05:38;1.80;;;1.70;;
46348;SDS011;32057;47.830;19.046;2023-04-16T04:08:05;2.38;;;2.17;;
46348;SDS011;32057;47.830;19.046;2023-04-16T04:10:31;3.47;;;2.85;;
46348;SDS011;32057;47.830;19.046;2023-04-16T04:12:57;1.73;;;1.63;;
46348;SDS011;32057;47.830;19.046;2023-04-16T04:15:22;1.92;;;1.75;;
46348;SDS011;32057;47.830;19.046;2023-04-16T04:17:48;1.38;;;1.27;;
46348;SDS011;32057;47.830;19.046;2023-04-16T04:20:13;1.75;;;1.40;;
46348;SDS011;32057;47.830;19.046;2023-04-16T04:22:39;2.13;;;1.92;;
46348;SDS011;32057;47.830;19.046;2023-04-16T04:25:04;2.70;;;2.10;;
46348;SDS011;32057;47.830;19.046;2023-04-16T04:27:30;2.90;;;2.13;;
46348;SDS011;32057;47.830;19.046;2023-04-16T04:29:56;2.22;;;2.03;;
46348;SDS011;32057;47.830;19.046;2023-04-16T04:32:22;1.42;;;1.30;;
46348;SDS011;32057;47.830;19.046;2023-04-16T04:34:47;2.10;;;1.92;;
46348;SDS011;32057;47.830;19.046;2023-04-16T04:37:12;2.78;;;2.38;;
46348;SDS011;32057;47.830;19.046;2023-04-16T04:39:38;2.80;;;2.58;;
46348;SDS011;32057;47.830;19.046;2023-04-16T04:42:03;3.25;;;2.42;;
46348;SDS011;32057;47.830;19.046;2023-04-16T04:44:29;1.98;;;1.83;;
46348;SDS011;32057;47.830;19.046;2023-04-16T04:46:54;3.08;;;1.77;;
46348;SDS011;32057;47.830;19.046;2023-04-16T04:49:20;2.00;;;1.90;;
46348;SDS011;32057;47.830;19.046;2023-04-16T04:51:45;1.90;;;1.80;;
46348;SDS011;32057;47.830;19.046;2023-04-16T04:54:11;1.65;;;1.55;;
46348;SDS011;32057;47.830;19.046;2023-04-16T04:56:37;1.23;;;1.20;;
46348;SDS011;32057;47.830;19.046;2023-04-16T04:59:02;2.08;;;1.80;;
46348;SDS011;32057;47.830;19.046;2023-04-16T05:01:28;1.73;;;1.38;;
46348;SDS011;32057;47.830;19.046;2023-04-16T05:03:53;1.42;;;1.35;;
46348;SDS011;32057;47.830;19.046;2023-04-16T05:06:19;1.08;;;1.00;;
46348;SDS011;32057;47.830;19.046;2023-04-16T05:08:44;1.52;;;1.42;;
46348;SDS011;32057;47.830;19.046;2023-04-16T05:11:09;1.27;;;1.17;;
46348;SDS011;32057;47.830;19.046;2023-04-16T05:13:35;1.33;;;1.23;;
46348;SDS011;32057;47.830;19.046;2023-04-16T05:16:00;0.80;;;0.80;;
46348;SDS011;32057;47.830;19.046;2023-04-16T05:18:26;0.88;;;0.88;;
46348;SDS011;32057;47.830;19.046;2023-04-16T05:20:51;1.55;;;1.45;;
46348;SDS011;32057;47.830;19.046;2023-04-16T05:23:17;0.63;;;0.63;;
46348;SDS011;32057;47.830;19.046;2023-04-16T05:25:42;0.93;;;0.85;;
46348;SDS011;32057;47.830;19.046;2023-04-16T05:28:08;1.05;;;0.95;;
46348;SDS011;32057;47.830;19.046;2023-04-16T05:30:34;0.70;;;0.70;;
46348;SDS011;32057;47.830;19.046;2023-04-16T05:32:59;1.17;;;0.95;;
46348;SDS011;32057;47.830;19.046;2023-04-16T05:35:25;1.15;;;1.08;;
46348;SDS011;32057;47.830;19.046;2023-04-16T05:37:50;7.63;;;1.10;;
46348;SDS011;32057;47.830;19.046;2023-04-16T05:40:16;1.95;;;1.48;;
46348;SDS011;32057;47.830;19.046;2023-04-16T05:42:41;0.95;;;0.90;;
46348;SDS011;32057;47.830;19.046;2023-04-16T05:45:07;3.42;;;1.40;;
46348;SDS011;32057;47.830;19.046;2023-04-16T05:47:32;1.23;;;1.13;;
46348;SDS011;32057;47.830;19.046;2023-04-16T05:49:58;1.10;;;1.10;;
46348;SDS011;32057;47.830;19.046;2023-04-16T05:52:23;1.13;;;1.02;;
46348;SDS011;32057;47.830;19.046;2023-04-16T05:54:49;1.50;;;1.40;;
46348;SDS011;32057;47.830;19.046;2023-04-16T05:57:14;1.50;;;0.82;;
46348;SDS011;32057;47.830;19.046;2023-04-16T05:59:39;1.52;;;1.00;;
46348;SDS011;32057;47.830;19.046;2023-04-16T06:02:05;0.98;;;0.98;;
46348;SDS011;32057;47.830;19.046;2023-04-16T06:04:31;1.63;;;0.98;;
46348;SDS011;32057;47.830;19.046;2023-04-16T06:06:56;0.93;;;0.93;;
46348;SDS011;32057;47.830;19.046;2023-04-16T06:09:22;0.73;;;0.73;;
46348;SDS011;32057;47.830;19.046;2023-04-16T06:11:47;1.33;;;1.23;;
46348;SDS011;32057;47.830;19.046;2023-04-16T06:14:13;1.17;;;1.08;;
46348;SDS011;32057;47.830;19.046;2023-04-16T06:16:38;1.00;;;0.88;;
46348;SDS011;32057;47.830;19.046;2023-04-16T06:19:04;1.05;;;1.05;;
46348;SDS011;32057;47.830;19.046;2023-04-16T06:21:29;2.72;;;1.27;;
46348;SDS011;32057;47.830;19.046;2023-04-16T06:23:55;1.23;;;0.70;;
46348;SDS011;32057;47.830;19.046;2023-04-16T06:26:21;1.20;;;1.10;;
46348;SDS011;32057;47.830;19.046;2023-04-16T06:28:46;3.70;;;1.10;;
46348;SDS011;32057;47.830;19.046;2023-04-16T06:31:12;1.00;;;1.00;;
46348;SDS011;32057;47.830;19.046;2023-04-16T06:33:37;0.80;;;0.80;;
46348;SDS011;32057;47.830;19.046;2023-04-16T06:36:02;0.90;;;0.90;;
46348;SDS011;32057;47.830;19.046;2023-04-16T06:38:28;0.77;;;0.77;;
46348;SDS011;32057;47.830;19.046;2023-04-16T06:40:54;0.93;;;0.88;;
46348;SDS011;32057;47.830;19.046;2023-04-16T06:43:20;0.98;;;0.90;;
46348;SDS011;32057;47.830;19.046;2023-04-16T06:45:46;1.58;;;1.40;;
46348;SDS011;32057;47.830;19.046;2023-04-16T06:48:11;2.22;;;0.93;;
46348;SDS011;32057;47.830;19.046;2023-04-16T06:50:37;2.58;;;1.17;;
46348;SDS011;32057;47.830;19.046;2023-04-16T06:53:02;1.40;;;1.25;;
46348;SDS011;32057;47.830;19.046;2023-04-16T06:55:28;1.13;;;0.95;;
46348;SDS011;32057;47.830;19.046;2023-04-16T06:57:53;0.70;;;0.70;;
46348;SDS011;32057;47.830;19.046;2023-04-16T07:00:19;0.80;;;0.70;;
46348;SDS011;32057;47.830;19.046;2023-04-16T07:02:44;1.33;;;1.23;;
46348;SDS011;32057;47.830;19.046;2023-04-16T07:05:10;1.23;;;1.13;;
46348;SDS011;32057;47.830;19.046;2023-04-16T07:07:35;0.60;;;0.60;;
46348;SDS011;32057;47.830;19.046;2023-04-16T07:10:01;1.25;;;1.17;;
46348;SDS011;32057;47.830;19.046;2023-04-16T07:12:26;0.85;;;0.85;;
46348;SDS011;32057;47.830;19.046;2023-04-16T07:14:52;1.75;;;1.45;;
46348;SDS011;32057;47.830;19.046;2023-04-16T07:17:17;1.15;;;1.00;;
46348;SDS011;32057;47.830;19.046;2023-04-16T07:19:43;1.25;;;1.15;;
46348;SDS011;32057;47.830;19.046;2023-04-16T07:22:08;1.75;;;1.15;;
46348;SDS011;32057;47.830;19.046;2023-04-16T07:24:33;1.25;;;1.15;;
46348;SDS011;32057;47.830;19.046;2023-04-16T07:26:59;1.92;;;1.13;;
46348;SDS011;32057;47.830;19.046;2023-04-16T07:29:25;1.13;;;1.13;;
46348;SDS011;32057;47.830;19.046;2023-04-16T07:31:50;1.10;;;0.95;;
46348;SDS011;32057;47.830;19.046;2023-04-16T07:34:16;1.15;;;1.05;;
46348;SDS011;32057;47.830;19.046;2023-04-16T07:36:41;0.82;;;0.82;;
46348;SDS011;32057;47.830;19.046;2023-04-16T07:39:06;1.10;;;1.05;;
46348;SDS011;32057;47.830;19.046;2023-04-16T07:41:32;1.17;;;0.77;;
46348;SDS011;32057;47.830;19.046;2023-04-16T07:43:58;1.42;;;1.33;;
46348;SDS011;32057;47.830;19.046;2023-04-16T07:46:23;1.42;;;1.35;;
46348;SDS011;32057;47.830;19.046;2023-04-16T07:48:49;1.50;;;1.40;;
46348;SDS011;32057;47.830;19.046;2023-04-16T07:51:14;1.02;;;0.93;;
46348;SDS011;32057;47.830;19.046;2023-04-16T07:53:40;1.27;;;1.17;;
46348;SDS011;32057;47.830;19.046;2023-04-16T07:56:07;1.50;;;1.15;;
46348;SDS011;32057;47.830;19.046;2023-04-16T07:58:33;0.85;;;0.85;;
46348;SDS011;32057;47.830;19.046;2023-04-16T08:00:58;1.45;;;1.33;;
46348;SDS011;32057;47.830;19.046;2023-04-16T08:03:24;3.22;;;1.23;;
46348;SDS011;32057;47.830;19.046;2023-04-16T08:05:49;1.08;;;1.08;;
46348;SDS011;32057;47.830;19.046;2023-04-16T08:08:15;1.50;;;1.40;;
46348;SDS011;32057;47.830;19.046;2023-04-16T08:10:40;1.30;;;1.20;;
46348;SDS011;32057;47.830;19.046;2023-04-16T08:13:05;0.95;;;0.90;;
46348;SDS011;32057;47.830;19.046;2023-04-16T08:15:31;1.00;;;0.98;;
46348;SDS011;32057;47.830;19.046;2023-04-16T08:17:56;1.70;;;1.10;;
46348;SDS011;32057;47.830;19.046;2023-04-16T08:20:22;1.02;;;1.02;;
46348;SDS011;32057;47.830;19.046;2023-04-16T08:22:47;1.17;;;1.13;;
46348;SDS011;32057;47.830;19.046;2023-04-16T08:25:13;1.48;;;1.08;;
46348;SDS011;32057;47.830;19.046;2023-04-16T08:27:39;0.90;;;0.90;;
46348;SDS011;32057;47.830;19.046;2023-04-16T08:30:04;1.58;;;1.40;;
46348;SDS011;32057;47.830;19.046;2023-04-16T08:32:31;0.98;;;0.98;;
46348;SDS011;32057;47.830;19.046;2023-04-16T08:34:56;1.42;;;1.33;;
46348;SDS011;32057;47.830;19.046;2023-04-16T08:37:22;2.05;;;1.33;;
46348;SDS011;32057;47.830;19.046;2023-04-16T08:39:47;1.30;;;1.25;;
46348;SDS011;32057;47.830;19.046;2023-04-16T08:42:16;1.50;;;1.23;;
46348;SDS011;32057;47.830;19.046;2023-04-16T08:44:47;1.30;;;1.20;;
46348;SDS011;32057;47.830;19.046;2023-04-16T08:47:16;1.95;;;1.33;;
46348;SDS011;32057;47.830;19.046;2023-04-16T08:49:43;0.80;;;0.80;;
46348;SDS011;32057;47.830;19.046;2023-04-16T08:52:13;1.13;;;0.90;;
46348;SDS011;32057;47.830;19.046;2023-04-16T08:54:47;1.02;;;1.02;;
46348;SDS011;32057;47.830;19.046;2023-04-16T08:57:21;1.23;;;1.15;;
46348;SDS011;32057;47.830;19.046;2023-04-16T08:59:52;1.30;;;1.02;;
46348;SDS011;32057;47.830;19.046;2023-04-16T09:02:19;1.33;;;1.23;;
46348;SDS011;32057;47.830;19.046;2023-04-16T09:04:45;0.70;;;0.70;;
46348;SDS011;32057;47.830;19.046;2023-04-16T09:07:12;1.33;;;1.23;;
46348;SDS011;32057;47.830;19.046;2023-04-16T09:09:38;1.30;;;1.00;;
46348;SDS011;32057;47.830;19.046;2023-04-16T09:12:06;0.85;;;0.80;;
46348;SDS011;32057;47.830;19.046;2023-04-16T09:14:32;1.15;;;0.65;;
46348;SDS011;32057;47.830;19.046;2023-04-16T09:16:58;0.70;;;0.70;;
46348;SDS011;32057;47.830;19.046;2023-04-16T09:19:26;0.55;;;0.55;;
46348;SDS011;32057;47.830;19.046;2023-04-16T09:21:52;2.08;;;1.10;;
46348;SDS011;32057;47.830;19.046;2023-04-16T09:24:17;0.60;;;0.60;;
46348;SDS011;32057;47.830;19.046;2023-04-16T09:26:43;0.82;;;0.82;;
46348;SDS011;32057;47.830;19.046;2023-04-16T09:29:09;0.60;;;0.60;;
46348;SDS011;32057;47.830;19.046;2023-04-16T09:31:34;0.43;;;0.43;;
46348;SDS011;32057;47.830;19.046;2023-04-16T09:36:33;0.85;;;0.85;;
46348;SDS011;32057;47.830;19.046;2023-04-16T09:39:00;0.55;;;0.55;;
46348;SDS011;32057;47.830;19.046;2023-04-16T09:41:26;1.10;;;1.00;;
46348;SDS011;32057;47.830;19.046;2023-04-16T09:43:54;0.50;;;0.50;;
46348;SDS011;32057;47.830;19.046;2023-04-16T09:46:24;0.80;;;0.70;;
46348;SDS011;32057;47.830;19.046;2023-04-16T09:49:11;0.70;;;0.70;;
46348;SDS011;32057;47.830;19.046;2023-04-16T09:51:45;1.25;;;0.80;;
46348;SDS011;32057;47.830;19.046;2023-04-16T09:54:13;0.82;;;0.82;;
46348;SDS011;32057;47.830;19.046;2023-04-16T09:56:43;0.60;;;0.60;;
46348;SDS011;32057;47.830;19.046;2023-04-16T09:59:19;0.40;;;0.40;;
46348;SDS011;32057;47.830;19.046;2023-04-16T10:01:46;0.85;;;0.68;;
46348;SDS011;32057;47.830;19.046;2023-04-16T10:04:13;0.47;;;0.47;;
46348;SDS011;32057;47.830;19.046;2023-04-16T10:06:39;1.85;;;0.77;;
46348;SDS011;32057;47.830;19.046;2023-04-16T10:09:08;6.50;;;0.93;;
46348;SDS011;32057;47.830;19.046;2023-04-16T10:11:34;0.30;;;0.30;;
46348;SDS011;32057;47.830;19.046;2023-04-16T10:14:01;0.80;;;0.65;;
46348;SDS011;32057;47.830;19.046;2023-04-16T10:16:26;0.43;;;0.43;;
46348;SDS011;32057;47.830;19.046;2023-04-16T10:18:53;0.20;;;0.20;;
46348;SDS011;32057;47.830;19.046;2023-04-16T10:21:18;0.30;;;0.30;;
46348;SDS011;32057;47.830;19.046;2023-04-16T10:23:45;0.40;;;0.40;;
46348;SDS011;32057;47.830;19.046;2023-04-16T10:26:11;0.30;;;0.30;;
46348;SDS011;32057;47.830;19.046;2023-04-16T10:28:37;0.45;;;0.35;;
46348;SDS011;32057;47.830;19.046;2023-04-16T10:31:04;0.63;;;0.57;;
46348;SDS011;32057;47.830;19.046;2023-04-16T10:33:32;0.68;;;0.68;;
46348;SDS011;32057;47.830;19.046;2023-04-16T10:38:39;0.30;;;0.30;;
46348;SDS011;32057;47.830;19.046;2023-04-16T10:41:12;0.63;;;0.47;;
46348;SDS011;32057;47.830;19.046;2023-04-16T10:43:44;0.75;;;0.75;;
46348;SDS011;32057;47.830;19.046;2023-04-16T10:46:18;0.20;;;0.20;;
46348;SDS011;32057;47.830;19.046;2023-04-16T10:51:27;0.40;;;0.40;;
46348;SDS011;32057;47.830;19.046;2023-04-16T10:54:01;0.70;;;0.60;;
46348;SDS011;32057;47.830;19.046;2023-04-16T10:56:26;0.20;;;0.20;;
46348;SDS011;32057;47.830;19.046;2023-04-16T10:58:55;0.52;;;0.50;;
46348;SDS011;32057;47.830;19.046;2023-04-16T11:01:36;0.30;;;0.30;;
46348;SDS011;32057;47.830;19.046;2023-04-16T11:14:50;1.13;;;0.40;;
46348;SDS011;32057;47.830;19.046;2023-04-16T11:17:18;0.30;;;0.30;;
46348;SDS011;32057;47.830;19.046;2023-04-16T11:19:44;0.22;;;0.22;;
46348;SDS011;32057;47.830;19.046;2023-04-16T11:22:13;0.50;;;0.50;;
46348;SDS011;32057;47.830;19.046;2023-04-16T11:24:42;0.52;;;0.52;;
46348;SDS011;32057;47.830;19.046;2023-04-16T11:27:12;0.70;;;0.70;;
46348;SDS011;32057;47.830;19.046;2023-04-16T11:29:38;0.30;;;0.30;;
46348;SDS011;32057;47.830;19.046;2023-04-16T11:32:04;1.83;;;1.00;;
46348;SDS011;32057;47.830;19.046;2023-04-16T11:34:29;0.55;;;0.55;;
46348;SDS011;32057;47.830;19.046;2023-04-16T11:36:55;0.30;;;0.30;;
46348;SDS011;32057;47.830;19.046;2023-04-16T11:39:21;0.30;;;0.30;;
46348;SDS011;32057;47.830;19.046;2023-04-16T11:41:48;0.60;;;0.60;;
46348;SDS011;32057;47.830;19.046;2023-04-16T11:44:23;0.50;;;0.50;;
46348;SDS011;32057;47.830;19.046;2023-04-16T11:46:50;0.43;;;0.43;;
46348;SDS011;32057;47.830;19.046;2023-04-16T11:49:16;0.28;;;0.28;;
46348;SDS011;32057;47.830;19.046;2023-04-16T11:51:42;0.80;;;0.80;;
46348;SDS011;32057;47.830;19.046;2023-04-16T11:54:16;0.40;;;0.40;;
46348;SDS011;32057;47.830;19.046;2023-04-16T11:56:46;0.43;;;0.43;;
46348;SDS011;32057;47.830;19.046;2023-04-16T11:59:13;0.35;;;0.35;;
46348;SDS011;32057;47.830;19.046;2023-04-16T12:01:41;0.40;;;0.40;;
46348;SDS011;32057;47.830;19.046;2023-04-16T12:04:10;0.93;;;0.50;;
46348;SDS011;32057;47.830;19.046;2023-04-16T12:06:38;0.40;;;0.40;;
46348;SDS011;32057;47.830;19.046;2023-04-16T12:09:22;0.43;;;0.43;;
46348;SDS011;32057;47.830;19.046;2023-04-16T12:11:48;0.63;;;0.50;;
46348;SDS011;32057;47.830;19.046;2023-04-16T12:14:14;0.38;;;0.38;;
46348;SDS011;32057;47.830;19.046;2023-04-16T12:16:39;0.40;;;0.40;;
46348;SDS011;32057;47.830;19.046;2023-04-16T12:19:05;0.50;;;0.47;;
46348;SDS011;32057;47.830;19.046;2023-04-16T12:21:41;0.38;;;0.30;;
46348;SDS011;32057;47.830;19.046;2023-04-16T12:24:08;1.42;;;0.57;;
46348;SDS011;32057;47.830;19.046;2023-04-16T12:26:35;0.32;;;0.32;;
46348;SDS011;32057;47.830;19.046;2023-04-16T12:31:41;0.40;;;0.40;;
46348;SDS011;32057;47.830;19.046;2023-04-16T12:34:06;0.57;;;0.50;;
46348;SDS011;32057;47.830;19.046;2023-04-16T12:36:32;0.43;;;0.43;;
46348;SDS011;32057;47.830;19.046;2023-04-16T12:38:57;0.35;;;0.35;;
46348;SDS011;32057;47.830;19.046;2023-04-16T12:41:22;0.90;;;0.57;;
46348;SDS011;32057;47.830;19.046;2023-04-16T12:43:48;0.98;;;0.73;;
46348;SDS011;32057;47.830;19.046;2023-04-16T12:46:13;0.52;;;0.52;;
46348;SDS011;32057;47.830;19.046;2023-04-16T12:48:39;0.47;;;0.47;;
46348;SDS011;32057;47.830;19.046;2023-04-16T12:51:05;0.98;;;0.50;;
46348;SDS011;32057;47.830;19.046;2023-04-16T12:53:31;1.20;;;0.45;;
46348;SDS011;32057;47.830;19.046;2023-04-16T12:55:56;1.98;;;0.50;;
46348;SDS011;32057;47.830;19.046;2023-04-16T12:58:22;0.68;;;0.30;;
46348;SDS011;32057;47.830;19.046;2023-04-16T13:00:50;0.30;;;0.30;;
46348;SDS011;32057;47.830;19.046;2023-04-16T13:03:18;0.40;;;0.40;;
46348;SDS011;32057;47.830;19.046;2023-04-16T13:05:44;0.30;;;0.30;;
46348;SDS011;32057;47.830;19.046;2023-04-16T13:08:10;0.22;;;0.22;;
46348;SDS011;32057;47.830;19.046;2023-04-16T13:10:35;0.28;;;0.28;;
46348;SDS011;32057;47.830;19.046;2023-04-16T13:13:01;0.40;;;0.40;;
46348;SDS011;32057;47.830;19.046;2023-04-16T13:15:26;0.45;;;0.45;;
46348;SDS011;32057;47.830;19.046;2023-04-16T13:17:52;0.30;;;0.30;;
46348;SDS011;32057;47.830;19.046;2023-04-16T13:20:17;0.35;;;0.35;;
46348;SDS011;32057;47.830;19.046;2023-04-16T13:22:42;0.30;;;0.30;;
46348;SDS011;32057;47.830;19.046;2023-04-16T13:25:08;1.65;;;0.22;;
46348;SDS011;32057;47.830;19.046;2023-04-16T13:27:34;0.20;;;0.20;;
46348;SDS011;32057;47.830;19.046;2023-04-16T13:29:59;0.93;;;0.38;;
46348;SDS011;32057;47.830;19.046;2023-04-16T13:32:25;0.55;;;0.40;;
46348;SDS011;32057;47.830;19.046;2023-04-16T13:34:50;0.40;;;0.40;;
46348;SDS011;32057;47.830;19.046;2023-04-16T13:37:15;0.28;;;0.28;;
46348;SDS011;32057;47.830;19.046;2023-04-16T13:39:41;2.15;;;0.50;;
46348;SDS011;32057;47.830;19.046;2023-04-16T13:42:06;0.28;;;0.28;;
46348;SDS011;32057;47.830;19.046;2023-04-16T13:44:32;0.77;;;0.32;;
46348;SDS011;32057;47.830;19.046;2023-04-16T13:46:57;0.38;;;0.38;;
46348;SDS011;32057;47.830;19.046;2023-04-16T13:49:23;0.80;;;0.40;;
46348;SDS011;32057;47.830;19.046;2023-04-16T13:51:48;0.30;;;0.30;;
46348;SDS011;32057;47.830;19.046;2023-04-16T13:54:14;1.25;;;0.40;;
46348;SDS011;32057;47.830;19.046;2023-04-16T13:56:40;0.68;;;0.68;;
46348;SDS011;32057;47.830;19.046;2023-04-16T13:59:05;0.40;;;0.40;;
46348;SDS011;32057;47.830;19.046;2023-04-16T14:01:31;0.20;;;0.20;;
46348;SDS011;32057;47.830;19.046;2023-04-16T14:03:56;0.30;;;0.30;;
46348;SDS011;32057;47.830;19.046;2023-04-16T14:06:23;0.32;;;0.32;;
46348;SDS011;32057;47.830;19.046;2023-04-16T14:08:48;0.30;;;0.30;;
46348;SDS011;32057;47.830;19.046;2023-04-16T14:11:14;0.22;;;0.22;;
46348;SDS011;32057;47.830;19.046;2023-04-16T14:13:40;0.32;;;0.32;;
46348;SDS011;32057;47.830;19.046;2023-04-16T14:16:05;0.68;;;0.68;;
46348;SDS011;32057;47.830;19.046;2023-04-16T14:18:31;0.35;;;0.35;;
46348;SDS011;32057;47.830;19.046;2023-04-16T14:20:56;0.52;;;0.52;;
46348;SDS011;32057;47.830;19.046;2023-04-16T14:23:22;0.32;;;0.32;;
46348;SDS011;32057;47.830;19.046;2023-04-16T14:25:48;1.45;;;0.50;;
46348;SDS011;32057;47.830;19.046;2023-04-16T14:28:13;0.30;;;0.30;;
46348;SDS011;32057;47.830;19.046;2023-04-16T14:30:39;0.20;;;0.20;;
46348;SDS011;32057;47.830;19.046;2023-04-16T14:33:04;0.40;;;0.40;;
46348;SDS011;32057;47.830;19.046;2023-04-16T14:35:30;0.30;;;0.30;;
46348;SDS011;32057;47.830;19.046;2023-04-16T14:37:57;0.38;;;0.38;;
46348;SDS011;32057;47.830;19.046;2023-04-16T14:40:23;0.20;;;0.20;;
46348;SDS011;32057;47.830;19.046;2023-04-16T14:42:48;0.43;;;0.43;;
46348;SDS011;32057;47.830;19.046;2023-04-16T14:45:13;0.28;;;0.20;;
46348;SDS011;32057;47.830;19.046;2023-04-16T14:47:39;1.30;;;1.20;;
46348;SDS011;32057;47.830;19.046;2023-04-16T14:50:09;6.25;;;0.90;;